createdAt,value
2018-06-30T00:02:11.851Z,101757.70
2018-06-30T00:04:58.212Z,101757.53
2018-06-30T00:07:41.609Z,101762.49
2018-06-30T00:10:37.718Z,101760.53
2018-06-30T00:13:22.653Z,101758.97
2018-06-30T00:16:13.325Z,101758.77
2018-06-30T00:18:59.404Z,101758.33
2018-06-30T00:21:48.751Z,101750.05
2018-06-30T00:24:38.085Z,101756.06
2018-06-30T00:27:20.774Z,101748.83
2018-06-30T00:30:07.778Z,101752.42
2018-06-30T00:32:55.495Z,101752.67
2018-06-30T00:35:46.084Z,101754.02
2018-06-30T00:38:32.059Z,101752.10
2018-06-30T00:41:16.577Z,101752.92
2018-06-30T00:44:05.259Z,101753.90
2018-06-30T00:46:51.130Z,101754.06
2018-06-30T00:49:35.038Z,101749.84
2018-06-30T00:52:19.527Z,101749.64
2018-06-30T00:57:57.922Z,101751.45
2018-06-30T01:00:48.789Z,101738.02
2018-06-30T01:03:31.119Z,101741.70
2018-06-30T01:06:18.657Z,101738.02
2018-06-30T01:09:05.256Z,101736.51
2018-06-30T01:11:52.012Z,101737.48
2018-06-30T01:14:28.751Z,101724.92
2018-06-30T01:17:14.008Z,101738.64
2018-06-30T01:19:55.960Z,101726.80
2018-06-30T01:22:44.475Z,101733.72
2018-06-30T01:25:25.455Z,101729.50
2018-06-30T01:28:13.252Z,101716.33
2018-06-30T01:30:57.325Z,101718.45
2018-06-30T01:33:43.711Z,101721.66
2018-06-30T01:36:25.417Z,101720.30
2018-06-30T01:39:13.165Z,101718.75
2018-06-30T01:42:00.488Z,101718.05
2018-06-30T01:44:43.545Z,101719.81
2018-06-30T01:47:30.538Z,101716.78
2018-06-30T01:50:15.575Z,101714.00
2018-06-30T01:53:01.893Z,101714.28
2018-06-30T01:55:49.817Z,101712.85
2018-06-30T01:58:34.431Z,101707.37
2018-06-30T02:01:20.625Z,101711.63
2018-06-30T02:04:01.972Z,101707.37
2018-06-30T02:06:46.760Z,101705.44
2018-06-30T02:09:29.434Z,101700.70
2018-06-30T02:12:13.247Z,101698.73
2018-06-30T02:15:02.331Z,101696.38
2018-06-30T02:20:42.248Z,101698.78
2018-06-30T02:23:26.065Z,101699.39
2018-06-30T02:26:10.049Z,101693.09
2018-06-30T02:28:51.375Z,101690.80
2018-06-30T02:31:35.691Z,101688.88
2018-06-30T02:34:28.208Z,101687.41
2018-06-30T02:37:13.441Z,101690.02
2018-06-30T02:40:04.107Z,101694.11
2018-06-30T02:42:48.155Z,101695.73
2018-06-30T02:45:37.248Z,101693.82
2018-06-30T02:48:27.184Z,101702.70
2018-06-30T02:51:12.472Z,101698.19
2018-06-30T02:54:00.494Z,101692.55
2018-06-30T02:56:44.855Z,101694.72
2018-06-30T02:59:25.221Z,101697.41
2018-06-30T03:02:12.233Z,101698.47
2018-06-30T03:04:58.389Z,101694.98
2018-06-30T03:07:42.921Z,101686.00
2018-06-30T03:10:31.983Z,101692.80
2018-06-30T03:13:16.529Z,101694.47
2018-06-30T03:16:01.808Z,101684.24
2018-06-30T03:18:42.601Z,101691.12
2018-06-30T03:21:28.314Z,101687.84
2018-06-30T03:24:20.996Z,101683.39
2018-06-30T03:27:07.553Z,101684.30
2018-06-30T03:29:55.635Z,101679.23
2018-06-30T03:32:45.479Z,101671.91
2018-06-30T03:35:28.835Z,101681.56
2018-06-30T03:38:14.443Z,101677.59
2018-06-30T03:41:01.329Z,101676.69
2018-06-30T03:43:48.745Z,101679.75
2018-06-30T03:46:39.212Z,101683.05
2018-06-30T03:49:25.593Z,101678.80
2018-06-30T03:52:09.782Z,101676.80
2018-06-30T03:54:56.307Z,101668.02
2018-06-30T03:57:41.886Z,101669.85
2018-06-30T04:00:28.007Z,101670.31
2018-06-30T04:03:15.107Z,101676.92
2018-06-30T04:06:10.910Z,101676.47
2018-06-30T04:08:55.819Z,101681.42
2018-06-30T04:11:41.675Z,101677.45
2018-06-30T04:14:27.952Z,101685.47
2018-06-30T06:54:08.168Z,101652.67
2018-06-30T06:56:37.154Z,101652.70
2018-06-30T06:59:06.052Z,101653.29
2018-06-30T07:01:35.042Z,101652.36
2018-06-30T07:04:04.087Z,101654.84
2018-06-30T07:06:33.310Z,101644.94
2018-06-30T07:09:02.594Z,101653.63
2018-06-30T07:11:31.547Z,101646.17
2018-06-30T07:14:00.517Z,101646.29
2018-06-30T07:16:32.318Z,101651.26
2018-06-30T07:19:01.250Z,101642.16
2018-06-30T07:21:30.171Z,101643.19
2018-06-30T07:23:59.190Z,101642.63
2018-06-30T07:26:28.195Z,101646.28
2018-06-30T07:28:57.337Z,101647.03
2018-06-30T07:31:26.412Z,101644.22
2018-06-30T07:33:55.403Z,101646.26
2018-06-30T07:36:24.359Z,101645.77
2018-06-30T07:38:53.349Z,101646.44
2018-06-30T07:41:22.311Z,101635.33
2018-06-30T07:43:51.343Z,101633.66
2018-06-30T07:46:20.284Z,101637.20
2018-06-30T07:48:49.212Z,101628.95
2018-06-30T07:51:18.227Z,101627.31
2018-06-30T07:53:47.198Z,101628.66
2018-06-30T07:56:16.116Z,101628.34
2018-06-30T07:58:45.028Z,101627.64
2018-06-30T08:01:14.090Z,101629.88
2018-06-30T08:03:43.036Z,101627.94
2018-06-30T08:06:12.003Z,101631.29
2018-06-30T08:08:41.107Z,101625.83
2018-06-30T08:11:10.079Z,101623.91
2018-06-30T08:13:39.090Z,101633.08
2018-06-30T08:16:08.002Z,101628.64
2018-06-30T08:18:36.935Z,101618.66
2018-06-30T08:21:05.973Z,101626.14
2018-06-30T08:23:34.955Z,101614.97
2018-06-30T08:26:03.964Z,101611.86
2018-06-30T08:28:38.371Z,101613.61
2018-06-30T08:31:07.340Z,101616.08
2018-06-30T08:33:36.312Z,101615.07
2018-06-30T08:36:05.308Z,101620.88
2018-06-30T08:38:34.421Z,101608.36
2018-06-30T08:41:03.382Z,101608.27
2018-06-30T08:43:32.412Z,101612.45
2018-06-30T08:46:01.393Z,101614.66
2018-06-30T08:48:30.407Z,101615.98
2018-06-30T08:50:59.381Z,101610.97
2018-06-30T08:53:28.387Z,101602.75
2018-06-30T08:55:57.351Z,101607.71
2018-06-30T08:58:26.341Z,101602.61
2018-06-30T09:00:55.279Z,101610.48
2018-06-30T09:03:24.224Z,101610.91
2018-06-30T09:05:53.306Z,101606.04
2018-06-30T09:08:22.444Z,101603.82
2018-06-30T09:10:51.529Z,101601.52
2018-06-30T09:13:20.468Z,101602.27
2018-06-30T09:15:49.390Z,101602.66
2018-06-30T09:18:18.351Z,101602.58
2018-06-30T09:20:47.342Z,101589.62
2018-06-30T09:23:16.304Z,101590.27
2018-06-30T09:25:45.261Z,101585.52
2018-06-30T09:28:14.214Z,101593.17
2018-06-30T09:30:43.173Z,101592.80
2018-06-30T09:33:12.096Z,101597.19
2018-06-30T09:35:41.056Z,101592.41
2018-06-30T09:38:10.045Z,101597.33
2018-06-30T09:40:39.069Z,101586.59
2018-06-30T09:43:08.197Z,101587.20
2018-06-30T09:45:37.320Z,101591.33
2018-06-30T09:48:06.363Z,101588.20
2018-06-30T09:50:35.364Z,101582.92
2018-06-30T09:53:04.389Z,101591.87
2018-06-30T09:55:33.334Z,101583.59
2018-06-30T09:58:02.320Z,101585.05
2018-06-30T10:01:36.431Z,101575.66
2018-06-30T10:04:05.398Z,101574.06
2018-06-30T10:06:34.407Z,101576.19
2018-06-30T10:09:03.877Z,101574.20
2018-06-30T10:11:32.834Z,101574.18
2018-06-30T10:14:01.792Z,101574.73
2018-06-30T10:16:30.764Z,101574.45
2018-06-30T10:18:59.808Z,101572.23
2018-06-30T10:21:28.841Z,101566.75
2018-06-30T10:23:57.803Z,101570.19
2018-06-30T10:26:26.881Z,101566.97
2018-06-30T10:29:02.568Z,101569.98
2018-06-30T10:31:31.600Z,101559.80
2018-06-30T10:34:00.525Z,101557.50
2018-06-30T10:36:29.517Z,101559.39
2018-06-30T10:38:58.531Z,101561.17
2018-06-30T10:41:28.131Z,101562.28
2018-06-30T10:43:57.069Z,101545.95
2018-06-30T10:46:26.101Z,101548.99
2018-06-30T10:48:55.018Z,101542.66
2018-06-30T10:51:24.048Z,101543.39
2018-06-30T10:53:53.054Z,101544.33
2018-06-30T10:56:22.108Z,101538.47
2018-06-30T10:58:51.238Z,101528.73
2018-06-30T11:01:20.138Z,101532.73
2018-06-30T11:03:49.113Z,101535.81
2018-06-30T11:06:18.069Z,101530.22
2018-06-30T11:08:46.960Z,101531.06
2018-06-30T11:11:15.909Z,101537.75
2018-06-30T11:13:44.846Z,101539.48
2018-06-30T11:16:13.765Z,101538.75
2018-06-30T11:18:42.756Z,101535.05
2018-06-30T11:21:11.806Z,101529.22
2018-06-30T11:23:40.753Z,101524.38
2018-06-30T11:26:09.949Z,101530.91
2018-06-30T11:28:39.117Z,101515.58
2018-06-30T11:31:08.278Z,101516.95
2018-06-30T11:33:37.230Z,101514.59
2018-06-30T11:36:06.314Z,101510.05
2018-06-30T11:38:35.249Z,101500.79
2018-06-30T11:41:04.290Z,101501.59
2018-06-30T11:43:33.242Z,101493.78
2018-06-30T11:46:07.681Z,101496.50
2018-06-30T11:48:36.656Z,101495.67
2018-06-30T11:51:05.835Z,101500.45
2018-06-30T11:53:34.790Z,101500.45
2018-06-30T11:56:03.758Z,101494.81
2018-06-30T11:58:32.837Z,101494.86
2018-06-30T12:01:01.806Z,101491.02
2018-06-30T12:03:30.925Z,101491.31
2018-06-30T12:05:59.786Z,101491.89
2018-06-30T12:08:28.821Z,101482.27
2018-06-30T12:10:58.084Z,101479.61
2018-06-30T12:13:27.098Z,101475.39
2018-06-30T12:15:56.110Z,101477.38
2018-06-30T12:18:25.080Z,101481.55
2018-06-30T12:20:54.159Z,101468.12
2018-06-30T12:23:23.041Z,101472.22
2018-06-30T12:25:51.972Z,101466.45
2018-06-30T12:28:20.959Z,101473.30
2018-06-30T12:30:49.881Z,101465.38
2018-06-30T12:33:18.844Z,101463.47
2018-06-30T12:35:47.940Z,101464.22
2018-06-30T12:38:16.880Z,101459.58
2018-06-30T12:40:46.096Z,101457.75
2018-06-30T12:43:15.082Z,101459.66
2018-06-30T12:45:44.339Z,101454.05
2018-06-30T12:48:13.380Z,101452.31
2018-06-30T12:50:42.367Z,101454.54
2018-06-30T12:53:11.262Z,101456.64
2018-06-30T12:55:40.289Z,101444.24
2018-06-30T12:58:09.348Z,101435.67
2018-06-30T13:00:38.339Z,101438.67
2018-06-30T13:03:07.374Z,101444.61
2018-06-30T13:05:36.297Z,101448.94
2018-06-30T13:08:05.299Z,101444.00
2018-06-30T13:10:34.318Z,101441.34
2018-06-30T13:13:03.335Z,101438.95
2018-06-30T13:15:32.342Z,101437.37
2018-06-30T13:18:01.330Z,101436.77
2018-06-30T13:20:30.457Z,101439.04
2018-06-30T13:22:59.444Z,101437.50
2018-06-30T13:25:28.472Z,101438.19
2018-06-30T13:27:57.398Z,101438.52
2018-06-30T13:30:26.359Z,101440.61
2018-06-30T13:32:55.280Z,101438.58
2018-06-30T13:35:24.257Z,101437.86
2018-06-30T13:37:53.441Z,101434.09
2018-06-30T13:40:22.356Z,101435.97
2018-06-30T13:42:51.384Z,101434.09
2018-06-30T13:45:20.336Z,101428.60
2018-06-30T13:47:49.504Z,101430.98
2018-06-30T13:50:19.561Z,101432.36
2018-06-30T13:52:48.497Z,101428.27
2018-06-30T13:55:17.614Z,101419.99
2018-06-30T13:57:46.541Z,101407.64
2018-06-30T14:00:15.887Z,101404.55
2018-06-30T14:02:44.900Z,101415.21
2018-06-30T14:05:13.840Z,101409.20
2018-06-30T14:07:42.814Z,101424.84
2018-06-30T14:10:11.864Z,101418.64
2018-06-30T14:12:41.090Z,101411.93
2018-06-30T14:15:10.675Z,101417.45
2018-06-30T14:17:39.944Z,101416.59
2018-06-30T14:20:09.882Z,101409.41
2018-06-30T14:22:38.792Z,101405.45
2018-06-30T14:25:08.195Z,101396.33
2018-06-30T14:27:37.180Z,101406.63
2018-06-30T14:30:08.819Z,101398.04
2018-06-30T14:32:37.887Z,101412.98
2018-06-30T14:35:07.151Z,101405.61
2018-06-30T14:37:36.148Z,101405.44
2018-06-30T14:40:05.645Z,101398.70
2018-06-30T14:42:34.660Z,101392.89
2018-06-30T14:45:03.711Z,101385.34
2018-06-30T14:47:32.729Z,101391.34
2018-06-30T14:50:01.723Z,101388.73
2018-06-30T14:52:30.676Z,101386.83
2018-06-30T14:54:59.649Z,101380.77
2018-06-30T14:57:28.635Z,101388.69
2018-06-30T14:59:57.690Z,101387.66
2018-06-30T15:02:26.643Z,101390.37
2018-06-30T15:04:55.575Z,101383.73
2018-06-30T15:07:24.543Z,101372.73
2018-06-30T15:09:53.482Z,101378.77
2018-06-30T15:12:22.574Z,101370.69
2018-06-30T15:14:51.493Z,101374.63
2018-06-30T15:17:20.553Z,101368.79
2018-06-30T15:19:49.551Z,101379.59
2018-06-30T15:22:18.474Z,101373.53
2018-06-30T15:24:47.399Z,101368.37
2018-06-30T15:27:16.341Z,101372.83
2018-06-30T15:29:45.302Z,101359.41
2018-06-30T15:32:14.327Z,101369.59
2018-06-30T15:34:43.563Z,101370.42
2018-06-30T15:37:12.472Z,101358.76
2018-06-30T15:39:41.487Z,101357.86
2018-06-30T15:42:10.543Z,101356.14
2018-06-30T15:44:39.565Z,101370.77
2018-06-30T15:47:08.545Z,101371.99
2018-06-30T15:49:37.589Z,101360.28
2018-06-30T15:52:06.728Z,101363.72
2018-06-30T15:54:35.656Z,101356.63
2018-06-30T15:57:04.675Z,101358.34
2018-06-30T15:59:33.731Z,101365.27
2018-06-30T16:02:02.737Z,101361.12
2018-06-30T16:04:31.757Z,101360.11
2018-06-30T16:07:00.891Z,101360.11
2018-06-30T16:09:29.824Z,101363.24
2018-06-30T16:11:58.797Z,101350.84
2018-06-30T16:14:27.909Z,101348.23
2018-06-30T16:16:56.901Z,101350.83
2018-06-30T16:19:25.877Z,101343.62
2018-06-30T16:21:55.006Z,101347.73
2018-06-30T16:24:23.997Z,101345.66
2018-06-30T16:26:53.020Z,101356.34
2018-06-30T16:29:22.130Z,101347.23
2018-06-30T16:31:51.071Z,101336.78
2018-06-30T16:34:20.075Z,101341.91
2018-06-30T16:36:48.965Z,101335.58
2018-06-30T16:39:17.895Z,101340.89
2018-06-30T16:41:46.867Z,101344.34
2018-06-30T16:44:16.007Z,101346.34
2018-06-30T16:46:44.974Z,101347.07
2018-06-30T16:49:13.970Z,101336.08
2018-06-30T16:51:42.889Z,101326.80
2018-06-30T16:54:11.825Z,101335.75
2018-06-30T16:56:40.807Z,101337.83
2018-06-30T16:59:09.731Z,101340.09
2018-06-30T17:01:38.678Z,101339.35
2018-06-30T17:04:08.175Z,101337.63
2018-06-30T17:06:37.179Z,101344.01
2018-06-30T17:09:09.494Z,101354.34
2018-06-30T17:11:38.446Z,101348.33
2018-06-30T17:14:07.433Z,101339.22
2018-06-30T17:16:36.474Z,101345.27
2018-06-30T17:19:05.439Z,101348.84
2018-06-30T17:21:35.002Z,101339.90
2018-06-30T17:24:04.345Z,101343.20
2018-06-30T17:26:33.273Z,101345.06
2018-06-30T17:29:02.336Z,101341.11
2018-06-30T17:31:31.353Z,101339.39
2018-06-30T17:34:00.387Z,101339.94
2018-06-30T17:36:29.394Z,101337.67
2018-06-30T17:38:58.417Z,101343.88
2018-06-30T17:41:27.517Z,101336.16
2018-06-30T17:43:56.443Z,101335.13
2018-06-30T17:46:25.535Z,101337.19
2018-06-30T17:48:54.649Z,101337.19
2018-06-30T17:51:23.733Z,101337.38
2018-06-30T17:53:52.714Z,101343.55
2018-06-30T17:56:21.736Z,101338.42
2018-06-30T17:58:50.939Z,101346.48
2018-06-30T18:01:19.915Z,101353.19
2018-06-30T18:03:49.064Z,101347.17
2018-06-30T18:06:18.011Z,101354.89
2018-06-30T18:08:47.036Z,101350.59
2018-06-30T18:11:15.969Z,101357.81
2018-06-30T18:13:44.855Z,101351.98
2018-06-30T18:16:13.836Z,101360.56
2018-06-30T18:18:42.811Z,101357.64
2018-06-30T18:21:11.769Z,101357.31
2018-06-30T18:23:40.730Z,101356.27
2018-06-30T18:26:09.641Z,101355.06
2018-06-30T18:28:38.715Z,101358.33
2018-06-30T18:31:07.753Z,101359.70
2018-06-30T18:33:36.740Z,101355.59
2018-06-30T18:36:06.081Z,101360.89
2018-06-30T18:38:35.080Z,101360.91
2018-06-30T18:41:04.051Z,101367.61
2018-06-30T18:43:33.057Z,101364.34
2018-06-30T18:46:02.031Z,101370.17
2018-06-30T18:48:31.037Z,101372.56
2018-06-30T18:51:00.837Z,101371.36
2018-06-30T18:53:29.851Z,101377.90
2018-06-30T18:55:58.786Z,101372.21
2018-06-30T18:58:27.827Z,101374.27
2018-06-30T19:00:56.746Z,101372.21
2018-06-30T19:03:25.699Z,101371.81
2018-06-30T19:05:54.680Z,101377.31
2018-06-30T19:08:23.750Z,101379.70
2018-06-30T19:10:52.715Z,101376.26
2018-06-30T19:13:21.607Z,101380.38
2018-06-30T19:15:50.597Z,101375.20
2018-06-30T19:18:19.553Z,101383.06
2018-06-30T19:20:48.614Z,101371.03
2018-06-30T19:23:17.513Z,101376.52
2018-06-30T19:25:46.495Z,101379.41
2018-06-30T19:28:15.417Z,101382.30
2018-06-30T19:30:44.462Z,101383.30
2018-06-30T19:33:13.383Z,101380.88
2018-06-30T19:35:42.397Z,101387.20
2018-06-30T19:38:11.352Z,101386.78
2018-06-30T19:40:40.367Z,101380.77
2018-06-30T19:43:09.241Z,101387.44
2018-06-30T19:45:38.339Z,101384.98
2018-06-30T19:48:07.717Z,101390.61
2018-06-30T19:50:36.817Z,101385.05
2018-06-30T19:53:06.026Z,101390.88
2018-06-30T19:55:34.875Z,101392.19
2018-06-30T19:58:03.844Z,101401.91
2018-06-30T20:00:32.857Z,101405.79
2018-06-30T20:03:01.806Z,101399.27
2018-06-30T20:05:30.725Z,101402.05
2018-06-30T20:07:59.791Z,101400.66
2018-06-30T20:10:28.811Z,101401.14
2018-06-30T20:12:57.779Z,101404.16
2018-06-30T20:15:26.773Z,101409.87
2018-06-30T20:17:55.716Z,101414.04
2018-06-30T20:20:24.671Z,101425.81
2018-06-30T20:22:53.685Z,101423.56
2018-06-30T20:25:22.595Z,101420.90
2018-06-30T20:27:51.573Z,101422.34
2018-06-30T20:30:20.730Z,101431.03
2018-06-30T20:32:49.699Z,101424.12
2018-06-30T20:35:18.691Z,101429.80
2018-06-30T20:37:47.659Z,101422.59
2018-06-30T20:40:16.617Z,101428.55
2018-06-30T20:42:45.620Z,101437.70
2018-06-30T20:45:14.701Z,101441.20
2018-06-30T20:47:43.752Z,101455.17
2018-06-30T20:50:12.703Z,101447.21
2018-06-30T20:52:41.774Z,101445.80
2018-06-30T20:55:10.715Z,101445.47
2018-06-30T20:57:39.673Z,101449.34
2018-06-30T21:00:08.614Z,101444.62
2018-06-30T21:02:37.656Z,101456.59
2018-06-30T21:05:06.689Z,101448.87
2018-06-30T21:07:35.857Z,101463.56
2018-06-30T21:10:05.425Z,101458.97
2018-06-30T21:12:34.348Z,101463.39
2018-06-30T21:15:03.439Z,101465.62
2018-06-30T21:17:32.361Z,101468.36
2018-06-30T21:20:01.249Z,101461.37
2018-06-30T21:22:30.248Z,101458.44
2018-06-30T21:24:59.194Z,101460.08
2018-06-30T21:27:28.124Z,101470.06
2018-06-30T21:29:57.116Z,101468.56
2018-06-30T21:32:26.032Z,101471.36
2018-06-30T21:34:55.010Z,101473.89
2018-06-30T21:37:24.004Z,101474.41
2018-06-30T21:39:52.980Z,101477.78
2018-06-30T21:42:21.931Z,101469.80
2018-06-30T21:44:50.983Z,101482.16
2018-06-30T21:47:19.947Z,101473.81
2018-06-30T21:49:48.887Z,101469.65
2018-06-30T21:52:17.854Z,101465.83
2018-06-30T21:54:46.820Z,101473.30
2018-06-30T21:57:15.762Z,101471.14
2018-06-30T21:59:44.756Z,101475.51
2018-06-30T22:02:13.846Z,101470.51
2018-06-30T22:04:42.786Z,101473.11
2018-06-30T22:07:11.900Z,101475.32
2018-06-30T22:09:40.968Z,101479.72
2018-06-30T22:12:09.948Z,101477.05
2018-06-30T22:14:38.954Z,101479.40
2018-06-30T22:17:07.974Z,101476.08
2018-06-30T22:19:36.909Z,101482.39
2018-06-30T22:22:06.092Z,101480.33
2018-06-30T22:24:35.064Z,101480.84
2018-06-30T22:27:04.184Z,101481.84
2018-06-30T22:29:33.126Z,101482.61
2018-06-30T22:32:02.080Z,101482.61
2018-06-30T22:34:31.046Z,101472.14
2018-06-30T22:37:00.023Z,101477.59
2018-06-30T22:39:40.119Z,101479.89
2018-06-30T22:42:09.050Z,101480.16
2018-06-30T22:44:38.044Z,101475.51
2018-06-30T22:47:07.381Z,101474.05
2018-06-30T22:49:36.357Z,101478.78
2018-06-30T22:52:05.347Z,101484.23
2018-06-30T22:54:34.654Z,101489.95
2018-06-30T22:57:03.608Z,101481.94
2018-06-30T22:59:32.562Z,101488.66
2018-06-30T23:02:01.604Z,101474.17
2018-06-30T23:04:30.642Z,101469.61
2018-06-30T23:06:59.617Z,101476.05
2018-06-30T23:09:28.716Z,101475.83
2018-06-30T23:11:57.641Z,101462.83
2018-06-30T23:14:26.598Z,101470.28
2018-06-30T23:16:55.592Z,101466.70
2018-06-30T23:19:24.551Z,101471.08
2018-06-30T23:21:53.604Z,101470.31
2018-06-30T23:24:22.520Z,101469.33
2018-06-30T23:26:51.669Z,101464.16
2018-06-30T23:29:20.674Z,101469.99
2018-06-30T23:31:49.674Z,101464.41
2018-06-30T23:34:18.571Z,101464.09
2018-06-30T23:36:47.498Z,101453.95
2018-06-30T23:39:16.415Z,101455.34
2018-06-30T23:41:45.412Z,101466.38
2018-06-30T23:44:14.387Z,101461.20
2018-06-30T23:46:43.445Z,101470.98
2018-06-30T23:49:12.368Z,101461.75
2018-06-30T23:51:41.384Z,101462.85
2018-06-30T23:54:10.306Z,101457.44
2018-06-30T23:56:39.248Z,101458.45
2018-06-30T23:59:08.195Z,101467.59
